Time;durP1;ratioP1;P1;durP2;ratioP2;P2;SDS_P1;SDS_P2;PMS_P1;PMS_P2;Temp;Humidity;BMP_temperature;BMP_pressure;BME280_temperature;BME280_humidity;BME280_pressure;Samples;Min_cycle;Max_cycle;Signal;HPM_P1;HPM_P2
2023/04/16 00:01:27;;;;;;;10.40;9.30;;;9.50;99.90;;;;;;5029066;28;20223;-64
2023/04/16 00:03:53;;;;;;;12.17;10.33;;;9.30;99.90;;;;;;5028996;28;20215;-63
2023/04/16 00:06:19;;;;;;;12.10;9.82;;;9.50;99.90;;;;;;5028673;28;20557;-64
2023/04/16 00:08:45;;;;;;;11.03;9.03;;;9.30;99.90;;;;;;5030362;28;20183;-64
2023/04/16 00:11:10;;;;;;;10.23;8.97;;;9.30;99.90;;;;;;5030181;28;20179;-64
2023/04/16 00:13:36;;;;;;;10.93;9.90;;;9.40;99.90;;;;;;5028266;28;20751;-63
2023/04/16 00:16:02;;;;;;;11.27;10.10;;;9.20;99.90;;;;;;5029528;28;20191;-63
2023/04/16 00:18:27;;;;;;;10.97;9.80;;;9.20;99.90;;;;;;5025781;28;20190;-64
2023/04/16 00:20:53;;;;;;;10.60;9.17;;;9.10;99.90;;;;;;5023941;28;20261;-64
2023/04/16 00:23:19;;;;;;;11.27;10.07;;;9.10;99.90;;;;;;5027085;28;20226;-64
2023/04/16 00:25:45;;;;;;;11.43;10.23;;;9.20;99.90;;;;;;5028578;28;20240;-64
2023/04/16 00:28:11;;;;;;;10.93;9.50;;;9.20;99.90;;;;;;5021174;28;20192;-64
2023/04/16 00:30:37;;;;;;;11.33;9.67;;;9.30;99.90;;;;;;5029877;28;20232;-63
2023/04/16 00:33:03;;;;;;;10.83;8.90;;;9.10;99.90;;;;;;5026821;28;20212;-63
2023/04/16 00:35:29;;;;;;;10.13;8.50;;;9.20;99.90;;;;;;5027678;28;20203;-63
2023/04/16 00:37:55;;;;;;;10.37;9.27;;;9.10;99.90;;;;;;5027157;28;20179;-63
2023/04/16 00:40:20;;;;;;;10.67;9.57;;;8.80;99.90;;;;;;5022898;28;20533;-63
2023/04/16 00:42:46;;;;;;;10.57;9.43;;;9.10;99.90;;;;;;5026476;28;20291;-63
2023/04/16 00:45:12;;;;;;;12.10;10.43;;;9.20;99.90;;;;;;5031055;28;20334;-63
2023/04/16 00:47:37;;;;;;;10.33;9.30;;;9.40;99.90;;;;;;5026055;28;20239;-63
2023/04/16 00:50:03;;;;;;;11.10;9.67;;;9.30;99.90;;;;;;5031016;28;20188;-64
2023/04/16 00:52:31;;;;;;;10.15;9.15;;;9.30;99.90;;;;;;5027078;28;20689;-63
2023/04/16 00:54:58;;;;;;;10.43;9.25;;;8.60;99.90;;;;;;5027969;28;20288;-63
2023/04/16 00:57:23;;;;;;;11.32;10.15;;;9.20;99.90;;;;;;5024628;28;20719;-63
2023/04/16 00:59:50;;;;;;;11.07;9.90;;;9.40;99.90;;;;;;5027073;28;20278;-63
2023/04/16 01:02:16;;;;;;;10.55;8.90;;;9.30;99.90;;;;;;5027328;28;20594;-63
2023/04/16 01:04:42;;;;;;;10.65;9.55;;;9.00;99.90;;;;;;5029156;28;20218;-63
2023/04/16 01:07:07;;;;;;;10.27;9.20;;;9.00;99.90;;;;;;5026929;28;20219;-63
2023/04/16 01:09:33;;;;;;;11.60;8.67;;;9.10;99.90;;;;;;5026074;28;20418;-63
2023/04/16 01:11:59;;;;;;;10.67;9.57;;;9.10;99.90;;;;;;5026352;28;20528;-63
2023/04/16 01:14:24;;;;;;;9.07;8.17;;;9.20;99.90;;;;;;5027656;28;20560;-63
2023/04/16 01:16:50;;;;;;;9.37;8.47;;;9.20;99.90;;;;;;5027346;28;20210;-63
2023/04/16 01:19:16;;;;;;;10.17;9.17;;;9.30;99.90;;;;;;5027624;28;20671;-64
2023/04/16 01:21:41;;;;;;;10.37;9.20;;;9.30;99.90;;;;;;5026279;28;20202;-64
2023/04/16 01:24:07;;;;;;;9.43;8.53;;;9.00;99.90;;;;;;5026179;28;20219;-64
2023/04/16 01:26:32;;;;;;;10.00;9.00;;;8.70;99.90;;;;;;5028097;28;20192;-64
2023/04/16 01:28:59;;;;;;;9.37;8.40;;;9.20;99.90;;;;;;5024833;28;20268;-63
2023/04/16 01:31:25;;;;;;;9.50;8.60;;;9.40;99.90;;;;;;5027950;28;20642;-64
2023/04/16 01:33:50;;;;;;;8.63;7.73;;;9.50;99.90;;;;;;5027679;28;20221;-64
2023/04/16 01:36:16;;;;;;;10.60;8.47;;;9.30;99.90;;;;;;5025552;28;20445;-63
2023/04/16 01:38:41;;;;;;;10.67;9.13;;;9.40;99.90;;;;;;5025491;28;20665;-64
2023/04/16 01:41:07;;;;;;;9.50;8.60;;;9.20;99.90;;;;;;5026493;28;20202;-64
2023/04/16 01:43:33;;;;;;;8.20;7.40;;;9.40;99.90;;;;;;5024320;28;20314;-65
2023/04/16 01:46:10;;;;;;;9.47;8.57;;;9.30;99.90;;;;;;5029351;28;20554;-64
2023/04/16 01:48:36;;;;;;;8.27;7.47;;;9.60;99.90;;;;;;5028005;28;20182;-64
2023/04/16 01:51:03;;;;;;;8.50;7.60;;;9.30;99.90;;;;;;5028189;28;20297;-64
2023/04/16 01:53:29;;;;;;;7.75;6.95;;;9.30;99.90;;;;;;5027965;28;20212;-63
2023/04/16 01:55:54;;;;;;;8.77;7.97;;;9.30;99.90;;;;;;5026154;28;20705;-64
2023/04/16 01:58:20;;;;;;;9.37;8.40;;;9.60;99.90;;;;;;5026387;28;20243;-64
2023/04/16 02:00:46;;;;;;;8.20;7.40;;;9.50;99.90;;;;;;5028487;28;20220;-64
2023/04/16 02:03:11;;;;;;;8.00;7.17;;;9.40;99.90;;;;;;5027570;28;20207;-64
2023/04/16 02:05:37;;;;;;;8.33;7.53;;;9.40;99.90;;;;;;5026837;28;20650;-63
2023/04/16 02:08:03;;;;;;;7.80;6.70;;;9.20;99.90;;;;;;5024586;28;20199;-64
2023/04/16 02:10:28;;;;;;;7.57;6.87;;;9.50;99.90;;;;;;5027914;28;20866;-64
2023/04/16 02:12:54;;;;;;;7.73;6.93;;;9.20;99.90;;;;;;5024033;28;20203;-64
2023/04/16 02:15:20;;;;;;;7.03;6.33;;;9.30;99.90;;;;;;5028537;28;20317;-64
2023/04/16 02:17:47;;;;;;;7.53;6.70;;;9.30;99.90;;;;;;5023672;28;20260;-64
2023/04/16 02:20:13;;;;;;;8.25;7.20;;;9.40;99.90;;;;;;5023401;28;20553;-64
2023/04/16 02:22:38;;;;;;;8.33;7.53;;;9.40;99.90;;;;;;5025799;28;20203;-64
2023/04/16 02:25:04;;;;;;;8.43;7.53;;;9.20;99.90;;;;;;5022919;28;20227;-63
2023/04/16 02:27:30;;;;;;;8.30;6.57;;;9.40;99.90;;;;;;5019608;28;20178;-64
2023/04/16 02:29:56;;;;;;;8.20;7.40;;;9.30;99.90;;;;;;5023604;28;20197;-64
2023/04/16 02:32:21;;;;;;;7.90;7.20;;;9.30;99.90;;;;;;5025430;28;20208;-64
2023/04/16 02:34:47;;;;;;;7.20;6.50;;;9.30;99.90;;;;;;5024001;28;20733;-64
2023/04/16 02:37:14;;;;;;;7.87;7.07;;;9.20;99.90;;;;;;5027468;28;20196;-64
2023/04/16 02:39:40;;;;;;;8.93;8.02;;;9.20;99.90;;;;;;5021133;28;20195;-64
2023/04/16 02:42:05;;;;;;;8.03;7.23;;;9.40;99.90;;;;;;5027473;28;20585;-64
2023/04/16 02:44:31;;;;;;;8.40;7.20;;;9.30;99.90;;;;;;5026151;28;20732;-64
2023/04/16 02:46:56;;;;;;;7.23;6.50;;;9.40;99.90;;;;;;5031390;28;20184;-64
2023/04/16 02:49:22;;;;;;;8.80;7.47;;;9.40;99.90;;;;;;5032604;28;20183;-64
2023/04/16 02:51:47;;;;;;;8.87;7.87;;;9.20;99.90;;;;;;5032562;28;20663;-64
2023/04/16 02:54:13;;;;;;;9.00;7.20;;;9.20;99.90;;;;;;5027805;28;20195;-64
2023/04/16 02:56:39;;;;;;;8.67;7.00;;;9.20;99.90;;;;;;5029204;28;20300;-64
2023/04/16 02:59:04;;;;;;;8.47;7.63;;;9.10;99.90;;;;;;5028035;28;20662;-64
2023/04/16 03:01:30;;;;;;;8.60;7.63;;;9.30;99.90;;;;;;5028387;28;20953;-64
2023/04/16 03:03:56;;;;;;;10.00;8.40;;;9.20;99.90;;;;;;5029555;28;20223;-64
2023/04/16 03:06:21;;;;;;;8.73;7.83;;;9.40;99.90;;;;;;5029735;28;20239;-64
2023/04/16 03:08:47;;;;;;;8.83;7.37;;;9.10;99.90;;;;;;5031718;28;20184;-63
2023/04/16 03:11:12;;;;;;;8.40;7.03;;;9.60;99.90;;;;;;5030140;28;20218;-62
2023/04/16 03:13:38;;;;;;;9.00;8.10;;;9.10;99.90;;;;;;5026929;28;20715;-64
2023/04/16 03:16:04;;;;;;;7.60;6.80;;;9.30;99.90;;;;;;5031228;28;20195;-64
2023/04/16 03:18:30;;;;;;;9.20;7.90;;;9.30;99.90;;;;;;5030167;28;20267;-64
2023/04/16 03:20:55;;;;;;;10.30;8.10;;;8.60;99.90;;;;;;5030115;28;20417;-64
2023/04/16 03:23:21;;;;;;;11.40;7.90;;;9.00;99.90;;;;;;5030250;28;20298;-64
2023/04/16 03:25:46;;;;;;;8.37;7.50;;;9.40;99.90;;;;;;5029735;28;20203;-64
2023/04/16 03:28:13;;;;;;;9.43;8.47;;;9.30;99.90;;;;;;5027111;28;20225;-64
2023/04/16 03:30:39;;;;;;;9.30;8.00;;;9.40;99.90;;;;;;5028093;28;20175;-64
2023/04/16 03:33:04;;;;;;;8.27;7.47;;;9.20;99.90;;;;;;5030306;28;20680;-64
2023/04/16 03:35:30;;;;;;;9.90;7.70;;;9.10;99.90;;;;;;5030738;28;20270;-64
2023/04/16 03:37:56;;;;;;;9.30;7.80;;;9.30;99.90;;;;;;5028531;28;20275;-64
2023/04/16 03:40:21;;;;;;;9.13;8.10;;;9.50;99.90;;;;;;5030360;28;20246;-64
2023/04/16 03:42:47;;;;;;;8.83;8.00;;;9.20;99.90;;;;;;5028458;28;20214;-64
2023/04/16 03:45:13;;;;;;;11.77;9.23;;;9.50;99.90;;;;;;5030309;28;20559;-64
2023/04/16 03:47:39;;;;;;;10.55;8.45;;;9.10;99.90;;;;;;5027656;28;20544;-64
2023/04/16 03:50:05;;;;;;;10.20;8.40;;;9.30;99.90;;;;;;5032730;28;20184;-64
2023/04/16 03:52:31;;;;;;;10.75;8.05;;;9.40;99.90;;;;;;5026827;28;20352;-64
2023/04/16 03:54:56;;;;;;;8.93;7.70;;;9.20;99.90;;;;;;5027210;28;20740;-64
2023/04/16 03:57:23;;;;;;;10.10;8.05;;;8.90;99.90;;;;;;5026198;28;20285;-64
2023/04/16 03:59:49;;;;;;;9.93;8.33;;;9.20;99.90;;;;;;5029495;28;20221;-64
2023/04/16 04:02:14;;;;;;;9.67;8.50;;;9.40;99.90;;;;;;5023211;28;20207;-64
2023/04/16 04:04:40;;;;;;;11.77;8.97;;;9.10;99.90;;;;;;5030956;28;20462;-64
2023/04/16 04:07:05;;;;;;;10.00;8.20;;;8.50;99.90;;;;;;5025551;28;20218;-64
2023/04/16 04:09:32;;;;;;;10.00;8.00;;;9.20;99.90;;;;;;5027491;28;20195;-64
2023/04/16 04:11:58;;;;;;;10.35;8.45;;;9.10;99.90;;;;;;5023345;28;20265;-64
2023/04/16 04:14:24;;;;;;;14.90;10.03;;;9.20;99.90;;;;;;5027278;28;20194;-64
2023/04/16 04:16:49;;;;;;;10.83;8.67;;;9.10;99.90;;;;;;5027552;28;20180;-63
2023/04/16 04:19:15;;;;;;;10.40;7.87;;;8.90;99.90;;;;;;5026464;28;20275;-64
2023/04/16 04:21:40;;;;;;;8.20;7.27;;;9.10;99.90;;;;;;5026375;28;20537;-64
2023/04/16 04:24:06;;;;;;;10.40;8.53;;;9.30;99.90;;;;;;5027135;28;20211;-64
2023/04/16 04:26:31;;;;;;;10.43;8.70;;;9.00;99.90;;;;;;5027270;28;20285;-64
2023/04/16 04:28:57;;;;;;;9.23;7.60;;;8.60;99.90;;;;;;5024753;28;20238;-63
2023/04/16 04:31:23;;;;;;;9.43;7.77;;;9.20;99.90;;;;;;5025856;28;20270;-63
2023/04/16 04:33:48;;;;;;;10.10;8.10;;;8.90;99.90;;;;;;5028102;28;20203;-64
2023/04/16 04:36:14;;;;;;;12.17;8.60;;;9.00;99.90;;;;;;5027039;28;20187;-63
2023/04/16 04:38:39;;;;;;;9.47;7.90;;;8.90;99.90;;;;;;5027671;28;20186;-63
2023/04/16 04:41:05;;;;;;;9.63;8.00;;;9.00;99.90;;;;;;5027388;28;20190;-63
2023/04/16 04:43:31;;;;;;;9.03;7.37;;;9.00;99.90;;;;;;5024600;28;20224;-63
2023/04/16 04:45:56;;;;;;;9.37;8.07;;;9.30;99.90;;;;;;5027664;28;20192;-66
2023/04/16 04:48:25;;;;;;;9.20;7.97;;;9.10;99.90;;;;;;5027182;28;20654;-66
2023/04/16 04:50:51;;;;;;;10.90;8.50;;;8.70;99.90;;;;;;5027484;28;20728;-67
2023/04/16 04:53:16;;;;;;;8.53;7.47;;;9.50;99.90;;;;;;5023947;28;20291;-66
2023/04/16 04:55:42;;;;;;;9.37;8.00;;;9.30;99.90;;;;;;5027741;28;20670;-65
2023/04/16 04:58:07;;;;;;;9.70;7.30;;;9.10;99.90;;;;;;5023821;28;20200;-63
2023/04/16 05:00:35;;;;;;;9.80;8.00;;;9.20;99.90;;;;;;5027483;28;20197;-65
2023/04/16 05:03:10;;;;;;;9.25;7.97;;;9.10;99.90;;;;;;5024239;28;20211;-64
2023/04/16 05:05:36;;;;;;;9.65;7.53;;;9.40;99.90;;;;;;5028511;28;20242;-64
2023/04/16 05:08:01;;;;;;;10.00;7.40;;;9.40;99.90;;;;;;5025093;28;20212;-64
2023/04/16 05:10:27;;;;;;;12.20;8.00;;;9.20;99.90;;;;;;5025995;28;20463;-66
2023/04/16 05:12:53;;;;;;;10.43;8.57;;;9.20;99.90;;;;;;5025111;28;20281;-65
2023/04/16 05:15:18;;;;;;;9.67;7.90;;;9.20;99.90;;;;;;5027286;28;20227;-65
2023/04/16 05:17:44;;;;;;;8.20;7.13;;;9.30;99.90;;;;;;5027501;28;20245;-66
2023/04/16 05:20:10;;;;;;;8.98;7.15;;;9.30;99.90;;;;;;5027488;28;20191;-66
2023/04/16 05:22:36;;;;;;;9.10;7.70;;;9.30;99.90;;;;;;5026662;28;20236;-64
2023/04/16 05:25:02;;;;;;;10.60;8.30;;;8.70;99.90;;;;;;5025611;28;20238;-64
2023/04/16 05:27:27;;;;;;;10.43;8.37;;;9.10;99.90;;;;;;5023139;28;20188;-64
2023/04/16 05:29:53;;;;;;;11.87;9.03;;;9.00;99.90;;;;;;5027087;28;20442;-64
2023/04/16 05:32:18;;;;;;;11.60;9.00;;;8.60;99.90;;;;;;5027760;28;20212;-63
2023/04/16 05:34:44;;;;;;;13.40;10.87;;;8.70;99.90;;;;;;5024108;28;20265;-63
2023/04/16 05:37:10;;;;;;;14.67;11.20;;;8.80;99.90;;;;;;5026046;28;20186;-63
2023/04/16 05:39:35;;;;;;;13.53;10.00;;;8.60;99.90;;;;;;5023928;28;20188;-63
2023/04/16 05:42:01;;;;;;;14.50;11.33;;;8.80;99.90;;;;;;5023086;28;20205;-64
2023/04/16 05:44:26;;;;;;;15.23;12.17;;;9.00;99.90;;;;;;5022616;28;20222;-63
2023/04/16 05:46:52;;;;;;;14.83;12.50;;;8.80;99.90;;;;;;5027263;28;20708;-63
2023/04/16 05:49:18;;;;;;;16.80;13.67;;;9.00;99.90;;;;;;5024603;28;20192;-64
2023/04/16 05:51:44;;;;;;;16.42;13.15;;;8.80;99.90;;;;;;5026703;28;20279;-64
2023/04/16 05:54:10;;;;;;;18.50;13.37;;;9.10;99.90;;;;;;5028092;28;20704;-65
2023/04/16 05:56:35;;;;;;;18.73;14.10;;;9.00;99.90;;;;;;5023479;28;20549;-63
2023/04/16 05:59:01;;;;;;;19.50;14.60;;;9.00;99.90;;;;;;5023741;28;20196;-63
2023/04/16 06:01:26;;;;;;;20.77;15.57;;;8.90;99.90;;;;;;5024025;28;20253;-65
2023/04/16 06:03:52;;;;;;;22.50;16.53;;;8.90;99.90;;;;;;5021306;28;20224;-62
2023/04/16 06:06:18;;;;;;;22.40;16.20;;;9.10;99.90;;;;;;5026531;28;20179;-62
2023/04/16 06:08:43;;;;;;;22.03;16.03;;;9.00;99.90;;;;;;5025009;28;20943;-62
2023/04/16 06:11:09;;;;;;;24.50;16.70;;;9.00;99.90;;;;;;5023741;28;20269;-63
2023/04/16 06:13:35;;;;;;;26.57;16.60;;;8.60;99.90;;;;;;5024029;28;20199;-63
2023/04/16 06:16:01;;;;;;;21.40;15.88;;;8.80;99.90;;;;;;5024247;28;20774;-63
2023/04/16 06:18:26;;;;;;;22.30;16.27;;;9.10;99.90;;;;;;5026031;28;20190;-63
2023/04/16 06:20:52;;;;;;;22.67;16.30;;;9.00;99.90;;;;;;5022469;28;20275;-63
2023/04/16 06:23:18;;;;;;;23.73;15.60;;;9.00;99.90;;;;;;5026440;28;20207;-63
2023/04/16 06:25:43;;;;;;;22.40;16.43;;;9.10;99.90;;;;;;5025582;28;20757;-63
2023/04/16 06:28:09;;;;;;;21.27;15.90;;;9.00;99.90;;;;;;5022432;28;20200;-63
2023/04/16 06:30:34;;;;;;;22.70;15.70;;;9.10;99.90;;;;;;5025943;28;20188;-64
2023/04/16 06:33:00;;;;;;;22.03;17.07;;;9.00;99.90;;;;;;5022788;28;20286;-64
2023/04/16 06:35:26;;;;;;;22.00;15.60;;;9.00;99.90;;;;;;5023791;28;20262;-64
2023/04/16 06:37:51;;;;;;;24.20;17.10;;;9.00;99.90;;;;;;5025263;28;20660;-63
2023/04/16 06:40:17;;;;;;;26.57;17.10;;;8.90;99.90;;;;;;5025263;28;20207;-64
2023/04/16 06:42:42;;;;;;;21.87;15.93;;;8.40;99.90;;;;;;5025948;28;20211;-64
2023/04/16 06:45:08;;;;;;;25.77;17.37;;;9.00;99.90;;;;;;5027385;28;20224;-64
2023/04/16 06:47:34;;;;;;;22.17;15.98;;;9.20;99.90;;;;;;5026252;28;20195;-63
2023/04/16 06:50:00;;;;;;;22.30;17.03;;;8.80;99.90;;;;;;5025297;28;20188;-65
2023/04/16 06:52:25;;;;;;;24.13;16.13;;;9.50;99.90;;;;;;5022926;28;20198;-64
2023/04/16 06:54:51;;;;;;;24.07;17.73;;;9.00;99.90;;;;;;5025300;28;20619;-64
2023/04/16 06:57:17;;;;;;;22.57;15.23;;;9.30;99.90;;;;;;5023875;28;20272;-64
2023/04/16 06:59:42;;;;;;;23.40;17.17;;;9.70;99.90;;;;;;5027740;28;20271;-66
2023/04/16 07:02:09;;;;;;;24.27;17.40;;;9.30;99.90;;;;;;5027770;28;20236;-64
2023/04/16 07:04:35;;;;;;;25.58;16.17;;;9.20;99.90;;;;;;5025425;28;20477;-62
2023/04/16 07:07:00;;;;;;;24.40;16.57;;;9.50;99.90;;;;;;5022314;28;20278;-64
2023/04/16 07:09:26;;;;;;;24.03;16.70;;;9.50;99.90;;;;;;5027383;28;21037;-65
2023/04/16 07:11:52;;;;;;;22.10;15.60;;;9.40;99.90;;;;;;5024947;28;20184;-65
2023/04/16 07:14:18;;;;;;;22.00;16.98;;;9.50;99.90;;;;;;5024831;28;20194;-65
2023/04/16 07:16:44;;;;;;;22.10;15.73;;;9.80;99.90;;;;;;5026694;28;20194;-63
2023/04/16 07:19:10;;;;;;;23.20;16.63;;;9.70;99.90;;;;;;5027924;28;20656;-61
2023/04/16 07:21:35;;;;;;;22.00;16.80;;;9.20;99.90;;;;;;5023885;28;20195;-62
2023/04/16 07:24:01;;;;;;;22.57;16.37;;;9.40;99.90;;;;;;5027348;28;20474;-62
2023/04/16 07:26:27;;;;;;;19.88;16.95;;;9.60;99.90;;;;;;5026064;28;20195;-62
2023/04/16 07:28:53;;;;;;;18.37;14.73;;;9.60;99.90;;;;;;5023192;28;20193;-61
2023/04/16 07:31:18;;;;;;;21.37;16.20;;;9.50;99.90;;;;;;5025866;28;20245;-63
2023/04/16 07:33:44;;;;;;;19.57;15.87;;;9.70;99.90;;;;;;5027542;28;20212;-62
2023/04/16 07:36:10;;;;;;;17.77;14.80;;;9.70;99.90;;;;;;5030481;28;20190;-61
2023/04/16 07:38:35;;;;;;;18.40;15.17;;;10.20;99.90;;;;;;5028196;28;20657;-61
2023/04/16 07:41:01;;;;;;;20.10;14.00;;;9.70;99.90;;;;;;5027014;28;20192;-61
2023/04/16 07:43:27;;;;;;;18.75;14.50;;;10.00;99.90;;;;;;5028514;28;20290;-61
2023/04/16 07:45:53;;;;;;;19.80;14.50;;;9.60;99.90;;;;;;5029526;28;20217;-63
2023/04/16 07:48:20;;;;;;;17.60;14.48;;;9.90;99.90;;;;;;5023887;28;20661;-63
2023/04/16 07:50:46;;;;;;;18.63;14.45;;;9.80;99.90;;;;;;5028826;28;20226;-63
2023/04/16 07:53:11;;;;;;;19.77;15.33;;;9.80;99.90;;;;;;5024271;28;20215;-63
2023/04/16 07:55:37;;;;;;;17.97;13.57;;;9.90;99.90;;;;;;5027811;28;20184;-63
2023/04/16 07:58:02;;;;;;;17.77;14.00;;;9.90;99.90;;;;;;5025184;28;21693;-64
2023/04/16 08:00:28;;;;;;;18.17;14.57;;;9.80;99.90;;;;;;5030208;28;20243;-64
2023/04/16 08:02:54;;;;;;;18.20;13.50;;;10.10;99.90;;;;;;5027024;28;20213;-63
2023/04/16 08:05:19;;;;;;;17.13;13.50;;;9.90;99.90;;;;;;5026292;28;20213;-63
2023/04/16 08:07:45;;;;;;;15.70;13.10;;;10.20;99.90;;;;;;5027109;28;20216;-63
2023/04/16 08:10:11;;;;;;;15.27;13.30;;;10.20;99.90;;;;;;5026413;28;20265;-63
2023/04/16 08:12:37;;;;;;;17.30;14.52;;;10.20;99.90;;;;;;5025396;28;20545;-62
2023/04/16 08:15:04;;;;;;;17.10;14.10;;;9.90;99.90;;;;;;5027965;28;20275;-62
2023/04/16 08:17:29;;;;;;;16.90;13.48;;;9.80;99.90;;;;;;5026993;28;20193;-62
2023/04/16 08:19:55;;;;;;;16.23;12.27;;;10.10;99.90;;;;;;5027167;28;20190;-62
2023/04/16 08:22:21;;;;;;;17.00;12.93;;;10.00;99.90;;;;;;5023207;28;20446;-62
2023/04/16 08:24:47;;;;;;;19.33;13.73;;;10.30;99.90;;;;;;5024078;28;20568;-64
2023/04/16 08:27:12;;;;;;;17.10;13.67;;;10.10;99.90;;;;;;5027978;28;20197;-63
2023/04/16 08:29:38;;;;;;;15.93;12.37;;;10.10;99.90;;;;;;5028566;28;20191;-63
2023/04/16 08:32:04;;;;;;;14.23;12.07;;;10.20;99.90;;;;;;5028228;28;20214;-63
2023/04/16 08:34:30;;;;;;;16.90;13.45;;;10.00;99.90;;;;;;5024251;28;20240;-63
2023/04/16 08:36:56;;;;;;;14.20;11.50;;;9.90;99.90;;;;;;5025946;28;20661;-64
2023/04/16 08:39:21;;;;;;;15.27;12.80;;;10.20;99.90;;;;;;5023464;28;20193;-64
2023/04/16 08:41:47;;;;;;;15.70;12.40;;;10.10;99.90;;;;;;5023681;28;20677;-64
2023/04/16 08:44:25;;;;;;;17.52;13.98;;;10.00;99.90;;;;;;5029006;28;20218;-66
2023/04/16 08:46:57;;;;;;;15.70;12.70;;;10.30;99.90;;;;;;5025496;28;20190;-63
2023/04/16 08:49:26;;;;;;;18.10;14.35;;;9.80;99.90;;;;;;5026995;28;20197;-65
2023/04/16 08:51:55;;;;;;;18.88;16.15;;;10.00;99.90;;;;;;5022092;28;20291;-64
2023/04/16 08:54:24;;;;;;;17.02;13.60;;;10.60;99.90;;;;;;5024398;28;20645;-65
2023/04/16 08:56:50;;;;;;;16.60;13.32;;;10.10;99.90;;;;;;5022807;28;20640;-64
2023/04/16 08:59:16;;;;;;;17.05;13.35;;;10.40;99.90;;;;;;5026685;28;20193;-66
2023/04/16 09:01:43;;;;;;;17.27;13.88;;;10.10;99.90;;;;;;5027312;28;20196;-66
2023/04/16 09:04:08;;;;;;;15.52;12.70;;;10.40;99.90;;;;;;5029621;28;20212;-64
2023/04/16 09:06:36;;;;;;;14.73;13.13;;;10.50;99.90;;;;;;5023314;28;20639;-64
2023/04/16 09:09:04;;;;;;;15.45;13.85;;;10.40;99.90;;;;;;5026846;28;20190;-65
2023/04/16 09:11:30;;;;;;;14.77;12.45;;;10.40;99.90;;;;;;5024206;28;20243;-64
2023/04/16 09:13:56;;;;;;;14.47;11.80;;;10.30;99.90;;;;;;5025807;28;20569;-67
2023/04/16 09:16:23;;;;;;;11.98;10.73;;;10.40;99.90;;;;;;5027300;28;20534;-64
2023/04/16 09:18:50;;;;;;;13.43;11.32;;;10.80;99.90;;;;;;5026861;28;20188;-66
2023/04/16 09:21:16;;;;;;;12.75;11.40;;;10.00;99.90;;;;;;5025425;28;20221;-64
2023/04/16 09:23:42;;;;;;;13.47;11.43;;;10.40;99.90;;;;;;5025610;28;20211;-65
2023/04/16 09:26:08;;;;;;;12.88;10.75;;;10.50;99.90;;;;;;5027189;28;20188;-65
2023/04/16 09:28:42;;;;;;;15.30;11.77;;;10.70;99.90;;;;;;5024399;28;20186;-65
2023/04/16 09:31:09;;;;;;;13.90;11.05;;;10.80;99.90;;;;;;5024504;28;20189;-65
2023/04/16 09:33:35;;;;;;;13.70;11.40;;;10.70;99.90;;;;;;5026341;28;20716;-67
2023/04/16 09:36:01;;;;;;;13.33;10.57;;;10.70;99.90;;;;;;5024014;28;20192;-65
2023/04/16 09:38:45;;;;;;;13.60;11.23;;;10.90;99.90;;;;;;5025649;28;20254;-68
2023/04/16 09:41:11;;;;;;;12.80;11.43;;;10.90;99.90;;;;;;5026554;28;20252;-65
2023/04/16 09:43:38;;;;;;;14.27;11.43;;;11.00;99.90;;;;;;5023561;28;20818;-66
2023/04/16 09:46:04;;;;;;;15.27;10.63;;;10.70;99.90;;;;;;5024692;28;20197;-66
2023/04/16 09:48:31;;;;;;;14.20;11.73;;;10.90;99.90;;;;;;5026645;28;20205;-67
2023/04/16 09:51:00;;;;;;;15.23;11.95;;;10.90;99.90;;;;;;5025839;28;20185;-67
2023/04/16 09:53:30;;;;;;;15.15;11.63;;;11.00;99.90;;;;;;5024710;28;20280;-68
2023/04/16 09:56:04;;;;;;;13.13;11.35;;;11.30;99.90;;;;;;5023843;28;20212;-66
2023/04/16 09:58:30;;;;;;;13.35;10.93;;;11.30;99.90;;;;;;5019745;28;20836;-67
2023/04/16 10:01:01;;;;;;;12.27;10.43;;;10.80;99.90;;;;;;5023088;28;20212;-66
2023/04/16 10:03:33;;;;;;;14.10;11.75;;;10.90;99.90;;;;;;5022175;28;20500;-66
2023/04/16 10:06:18;;;;;;;13.35;10.57;;;11.20;99.90;;;;;;5024929;28;20184;-66
2023/04/16 10:08:51;;;;;;;14.65;10.95;;;11.10;99.90;;;;;;5021135;28;20188;-66
2023/04/16 10:11:17;;;;;;;12.85;10.35;;;11.10;99.90;;;;;;5025275;28;20627;-66
2023/04/16 10:13:43;;;;;;;14.40;11.30;;;11.00;99.90;;;;;;5020949;28;20208;-67
2023/04/16 10:16:09;;;;;;;14.47;11.33;;;10.90;99.90;;;;;;5025224;28;20203;-67
2023/04/16 10:18:37;;;;;;;22.40;16.40;;;10.50;99.90;;;;;;5024015;28;20444;-66
2023/04/16 10:21:04;;;;;;;16.90;12.20;;;11.20;99.90;;;;;;5023048;28;20743;-65
2023/04/16 10:23:31;;;;;;;13.68;11.70;;;10.70;99.90;;;;;;5021422;28;20218;-63
2023/04/16 10:25:58;;;;;;;13.90;11.23;;;10.90;99.90;;;;;;5021638;28;20185;-63
2023/04/16 10:28:24;;;;;;;13.25;11.80;;;10.90;99.90;;;;;;5019912;28;20958;-62
2023/04/16 10:30:52;;;;;;;13.57;12.03;;;10.80;99.90;;;;;;5020065;28;20194;-63
2023/04/16 10:33:21;;;;;;;12.75;10.52;;;11.00;99.90;;;;;;5023399;28;20801;-62
2023/04/16 10:35:49;;;;;;;13.82;11.35;;;10.70;99.90;;;;;;5021962;28;20647;-63
2023/04/16 10:38:26;;;;;;;15.82;11.73;;;11.00;99.90;;;;;;5020744;28;20243;-62
2023/04/16 10:41:21;;;;;;;16.20;11.75;;;10.90;99.90;;;;;;5018885;28;20206;-63
2023/04/16 10:43:48;;;;;;;14.73;11.63;;;11.10;99.90;;;;;;5024912;28;20306;-62
2023/04/16 10:46:27;;;;;;;13.50;10.80;;;11.00;99.90;;;;;;5024131;28;20182;-63
2023/04/16 10:48:54;;;;;;;16.80;12.05;;;11.20;99.90;;;;;;5024888;28;20181;-62
2023/04/16 10:51:32;;;;;;;18.42;11.55;;;11.00;99.90;;;;;;5025274;28;20211;-64
2023/04/16 10:54:25;;;;;;;14.73;10.55;;;10.90;99.90;;;;;;5022680;28;20213;-63
2023/04/16 10:56:52;;;;;;;12.30;11.02;;;11.40;99.90;;;;;;5021772;28;20201;-63
2023/04/16 10:59:19;;;;;;;14.43;11.48;;;11.20;99.90;;;;;;5019169;28;20258;-63
2023/04/16 11:01:47;;;;;;;14.10;11.90;;;11.10;99.90;;;;;;5022596;28;20543;-63
2023/04/16 11:04:19;;;;;;;15.75;11.90;;;11.20;99.90;;;;;;5019832;28;20208;-65
2023/04/16 11:07:13;;;;;;;15.70;13.10;;;11.10;99.90;;;;;;5024158;28;20251;-63
2023/04/16 11:09:46;;;;;;;12.77;10.80;;;10.80;99.90;;;;;;5025814;28;20178;-62
2023/04/16 11:12:14;;;;;;;12.88;11.35;;;11.50;99.90;;;;;;5024840;28;20774;-63
2023/04/16 11:14:40;;;;;;;13.30;10.20;;;11.10;99.90;;;;;;5028664;28;20281;-63
2023/04/16 11:17:06;;;;;;;11.35;9.25;;;11.10;99.90;;;;;;5025593;28;20303;-63
2023/04/16 11:19:34;;;;;;;13.87;10.70;;;11.10;99.90;;;;;;5026759;28;20189;-63
2023/04/16 11:22:00;;;;;;;12.25;9.45;;;11.10;99.90;;;;;;5020364;28;20205;-64
2023/04/16 11:24:29;;;;;;;11.52;9.40;;;11.20;99.90;;;;;;5025486;28;20216;-64
2023/04/16 11:26:55;;;;;;;10.30;8.45;;;11.40;99.90;;;;;;5023701;28;20190;-63
2023/04/16 11:29:21;;;;;;;11.00;8.97;;;11.30;99.90;;;;;;5025838;28;20569;-64
2023/04/16 11:31:54;;;;;;;9.30;8.13;;;11.20;99.90;;;;;;5028717;28;20192;-66
2023/04/16 11:34:20;;;;;;;8.77;7.90;;;11.20;99.90;;;;;;5028520;28;20494;-64
2023/04/16 11:36:48;;;;;;;8.90;7.80;;;11.30;99.90;;;;;;5030121;28;20535;-64
2023/04/16 11:39:14;;;;;;;10.75;8.48;;;11.20;99.90;;;;;;5025788;28;20201;-65
2023/04/16 11:41:49;;;;;;;8.90;7.37;;;11.10;99.90;;;;;;5027729;28;20618;-65
2023/04/16 11:44:26;;;;;;;8.25;7.38;;;11.20;99.90;;;;;;5026915;28;20491;-66
2023/04/16 11:46:53;;;;;;;9.60;7.40;;;10.80;99.90;;;;;;5024714;28;20225;-64
2023/04/16 11:49:31;;;;;;;7.97;7.20;;;11.10;99.90;;;;;;5023850;28;20324;-64
2023/04/16 11:51:57;;;;;;;7.47;6.32;;;11.20;99.90;;;;;;5023716;28;20222;-65
2023/04/16 11:54:24;;;;;;;7.07;5.57;;;11.40;99.90;;;;;;5027554;28;20193;-65
2023/04/16 11:56:52;;;;;;;6.28;5.68;;;11.20;99.90;;;;;;5023805;28;20652;-65
2023/04/16 11:59:22;;;;;;;6.28;5.65;;;11.20;99.90;;;;;;5023578;28;20531;-64
2023/04/16 12:01:48;;;;;;;7.60;5.10;;;11.40;99.90;;;;;;5027730;28;20182;-64
2023/04/16 12:04:16;;;;;;;5.50;4.80;;;11.50;99.90;;;;;;5029027;28;20213;-66
2023/04/16 12:07:04;;;;;;;7.00;5.43;;;11.60;99.90;;;;;;5022723;28;20196;-65
2023/04/16 12:09:30;;;;;;;6.22;5.10;;;11.30;99.90;;;;;;5025353;28;20686;-65
2023/04/16 12:11:55;;;;;;;5.60;5.10;;;11.40;99.90;;;;;;5026481;28;20185;-64
2023/04/16 12:14:22;;;;;;;6.30;4.87;;;11.20;99.90;;;;;;5027730;28;20202;-64
2023/04/16 12:16:48;;;;;;;5.32;4.82;;;11.00;99.90;;;;;;5022828;28;20196;-65
2023/04/16 12:19:14;;;;;;;5.37;4.30;;;11.20;99.90;;;;;;5026341;28;20190;-66
2023/04/16 12:21:47;;;;;;;4.78;4.30;;;11.40;99.90;;;;;;5025233;28;20200;-64
2023/04/16 12:24:22;;;;;;;4.57;4.18;;;11.30;99.90;;;;;;5025189;28;20247;-66
2023/04/16 12:26:54;;;;;;;4.43;3.90;;;11.10;99.90;;;;;;5022996;28;20187;-66
2023/04/16 12:29:26;;;;;;;4.30;3.90;;;11.20;99.90;;;;;;5018587;28;21041;-66
2023/04/16 12:31:53;;;;;;;4.95;4.45;;;11.10;99.90;;;;;;5026354;28;20189;-65
2023/04/16 12:34:20;;;;;;;4.82;4.43;;;11.30;99.90;;;;;;5027200;28;20199;-64
2023/04/16 12:36:47;;;;;;;4.93;4.45;;;11.10;99.90;;;;;;5021629;28;20221;-64
2023/04/16 12:39:14;;;;;;;5.18;4.47;;;11.10;99.90;;;;;;5029159;28;20336;-65
2023/04/16 12:41:41;;;;;;;4.60;4.20;;;11.00;99.90;;;;;;5026069;28;20190;-64